createdAt,value
2022-08-22T00:00:23.171Z,99776.84
2022-08-22T00:02:52.599Z,99710.81
2022-08-22T00:03:08.536Z,99766.38
2022-08-22T00:05:58.761Z,99776.91
2022-08-22T00:08:34.828Z,99775.22
2022-08-22T00:11:11.917Z,99770.06
2022-08-22T00:13:46.497Z,99777.09
2022-08-22T00:16:19.052Z,99774.53
2022-08-22T00:18:56.893Z,99768.50
2022-08-22T00:21:31.863Z,99766.84
2022-08-22T00:24:13.339Z,99768.56
2022-08-22T00:26:46.966Z,99772.06
2022-08-22T00:29:18.579Z,99772.91
2022-08-22T00:31:49.940Z,99775.44
2022-08-22T00:34:26.442Z,99771.91
2022-08-22T00:37:00.902Z,99773.53
2022-08-22T00:39:35.118Z,99777.81
2022-08-22T00:42:31.993Z,99783.13
2022-08-22T00:45:40.414Z,99790.88
2022-08-22T00:48:28.690Z,99784.66
2022-08-22T00:51:21.199Z,99780.31
2022-08-22T00:53:54.208Z,99778.63
2022-08-22T00:56:39.268Z,99784.66
2022-08-22T00:59:24.272Z,99775.13
2022-08-22T01:02:02.303Z,99775.13
2022-08-22T01:04:48.261Z,99771.47
2022-08-22T01:07:40.812Z,99778.34
2022-08-22T01:10:29.309Z,99771.31
2022-08-22T01:13:25.038Z,99768.72
2022-08-22T01:16:05.628Z,99769.22
2022-08-22T01:18:57.221Z,99769.28
2022-08-22T01:21:55.736Z,99764.22
2022-08-22T01:25:20.906Z,99756.69
2022-08-22T01:28:19.945Z,99764.31
2022-08-22T01:31:33.916Z,99759.84
2022-08-22T01:34:36.941Z,99763.31
2022-08-22T01:37:27.709Z,99771.28
2022-08-22T01:40:25.820Z,99766.94
2022-08-22T01:43:08.861Z,99759.41
2022-08-22T01:46:05.313Z,99755.16
2022-08-22T01:48:40.697Z,99766.31
2022-08-22T01:51:21.068Z,99762.84
2022-08-22T01:53:59.324Z,99764.50
2022-08-22T01:56:32.876Z,99770.66
2022-08-22T01:59:03.439Z,99762.94
2022-08-22T02:01:43.809Z,99755.16
2022-08-22T02:04:19.383Z,99769.06
2022-08-22T02:06:59.027Z,99757.69
2022-08-22T02:09:40.905Z,99762.84
2022-08-22T02:12:26.779Z,99753.44
2022-08-22T02:15:03.944Z,99751.78
2022-08-22T02:17:35.632Z,99764.75
2022-08-22T02:20:11.384Z,99760.44
2022-08-22T02:22:52.782Z,99763.78
2022-08-22T02:25:26.482Z,99758.50
2022-08-22T02:27:59.834Z,99758.56
2022-08-22T02:30:29.247Z,99747.25
2022-08-22T02:33:03.406Z,99751.78
2022-08-22T02:35:35.290Z,99753.56
2022-08-22T02:38:13.171Z,99755.28
2022-08-22T02:40:47.078Z,99747.53
2022-08-22T02:43:20.182Z,99747.53
2022-08-22T02:45:53.916Z,99744.84
2022-08-22T02:48:35.525Z,99746.53
2022-08-22T02:51:12.522Z,99751.69
2022-08-22T02:53:54.116Z,99746.47
2022-08-22T02:56:27.925Z,99749.94
2022-08-22T02:59:00.118Z,99748.22
2022-08-22T03:01:40.735Z,99737.81
2022-08-22T03:04:51.928Z,99745.63
2022-08-22T03:07:34.469Z,99748.16
2022-08-22T03:10:14.565Z,99747.13
2022-08-22T03:12:51.942Z,99746.25
2022-08-22T03:15:27.171Z,99747.19
2022-08-22T03:18:01.048Z,99747.22
2022-08-22T03:20:55.684Z,99749.94
2022-08-22T03:23:26.293Z,99744.91
2022-08-22T03:26:01.828Z,99743.28
2022-08-22T03:28:59.228Z,99743.41
2022-08-22T03:31:29.743Z,99743.53
2022-08-22T03:34:18.781Z,99753.13
2022-08-22T03:36:48.990Z,99748.75
2022-08-22T03:39:23.602Z,99752.22
2022-08-22T03:42:26.160Z,99754.00
2022-08-22T03:45:18.973Z,99748.88
2022-08-22T03:48:04.521Z,99745.38
2022-08-22T03:51:07.964Z,99742.84
2022-08-22T03:54:06.056Z,99742.91
2022-08-22T03:57:18.416Z,99746.44
2022-08-22T04:00:26.203Z,99751.63
2022-08-22T04:03:25.397Z,99757.63
2022-08-22T04:06:12.707Z,99753.31
2022-08-22T04:09:17.102Z,99755.84
2022-08-22T04:12:18.525Z,99757.59
2022-08-22T04:15:08.180Z,99761.00
2022-08-22T04:17:59.877Z,99767.97
2022-08-22T04:20:53.905Z,99759.31
2022-08-22T04:24:00.641Z,99773.19
2022-08-22T04:26:38.263Z,99771.44
2022-08-22T04:29:13.520Z,99772.31
2022-08-22T04:31:48.028Z,99769.72
2022-08-22T04:34:24.880Z,99769.75
2022-08-22T04:36:57.913Z,99773.28
2022-08-22T04:39:35.606Z,99768.97
2022-08-22T04:42:31.603Z,99768.94
2022-08-22T04:45:04.522Z,99774.13
2022-08-22T04:47:37.656Z,99777.56
2022-08-22T04:50:14.781Z,99771.50
2022-08-22T04:52:57.455Z,99780.13
2022-08-22T04:55:34.059Z,99780.16
2022-08-22T04:58:22.691Z,99776.63
2022-08-22T05:00:57.945Z,99779.22
2022-08-22T05:03:28.710Z,99775.72
2022-08-22T05:06:01.327Z,99774.03
2022-08-22T05:08:33.644Z,99778.41
2022-08-22T05:11:03.444Z,99780.19
2022-08-22T05:13:34.792Z,99781.91
2022-08-22T05:16:06.897Z,99786.28
2022-08-22T05:18:40.782Z,99781.94
2022-08-22T05:21:13.888Z,99781.91
2022-08-22T05:23:45.141Z,99785.38
2022-08-22T05:26:14.968Z,99781.06
2022-08-22T05:28:51.307Z,99785.38
2022-08-22T05:31:27.531Z,99776.69
2022-08-22T05:33:59.323Z,99785.38
2022-08-22T05:36:32.060Z,99782.75
2022-08-22T05:39:03.501Z,99774.94
2022-08-22T05:41:36.916Z,99776.69
2022-08-22T05:44:05.840Z,99779.25
2022-08-22T05:46:43.791Z,99779.19
2022-08-22T05:49:19.471Z,99773.06
2022-08-22T05:52:06.813Z,99776.47
2022-08-22T05:54:43.208Z,99779.06
2022-08-22T05:57:22.197Z,99773.81
2022-08-22T05:59:58.924Z,99776.41
2022-08-22T06:02:40.468Z,99778.16
2022-08-22T06:05:12.124Z,99783.31
2022-08-22T06:07:45.974Z,99779.78
2022-08-22T06:10:21.713Z,99789.25
2022-08-22T06:12:56.428Z,99782.25
2022-08-22T06:15:34.163Z,99781.31
2022-08-22T06:18:05.003Z,99782.09
2022-08-22T06:20:39.127Z,99785.47
2022-08-22T06:23:11.693Z,99788.88
2022-08-22T06:25:43.073Z,99787.91
2022-08-22T06:28:14.952Z,99793.91
2022-08-22T06:30:46.543Z,99796.41
2022-08-22T06:33:19.136Z,99796.34
2022-08-22T06:36:07.776Z,99787.53
2022-08-22T06:38:55.478Z,99792.66
2022-08-22T06:41:29.658Z,99789.94
2022-08-22T06:43:59.097Z,99805.34
2022-08-22T06:46:29.662Z,99799.13
2022-08-22T06:49:00.748Z,99796.38
2022-08-22T06:51:29.439Z,99805.84
2022-08-22T06:54:04.416Z,99797.03
2022-08-22T06:56:36.495Z,99796.94
2022-08-22T06:59:10.284Z,99797.72
2022-08-22T07:01:45.436Z,99795.00
2022-08-22T07:04:13.137Z,99792.22
2022-08-22T07:06:43.777Z,99788.63
2022-08-22T07:09:21.295Z,99796.25
2022-08-22T07:11:49.212Z,99794.44
2022-08-22T07:14:25.476Z,99797.72
2022-08-22T07:16:56.939Z,99797.50
2022-08-22T07:19:27.270Z,99796.50
2022-08-22T07:21:56.484Z,99796.31
2022-08-22T07:24:29.509Z,99802.06
2022-08-22T07:27:08.795Z,99807.97
2022-08-22T07:29:46.632Z,99809.53
2022-08-22T07:32:19.034Z,99807.38
2022-08-22T07:35:08.516Z,99805.16
2022-08-22T07:37:49.992Z,99799.00
2022-08-22T07:40:27.075Z,99802.34
2022-08-22T07:43:01.056Z,99804.88
2022-08-22T07:45:41.254Z,99804.78
2022-08-22T07:48:26.010Z,99809.66
2022-08-22T07:51:07.807Z,99813.91
2022-08-22T07:53:40.333Z,99814.59
2022-08-22T07:56:15.449Z,99804.03
2022-08-22T07:58:45.534Z,99820.41
2022-08-22T08:01:18.905Z,99814.09
2022-08-22T08:03:51.260Z,99815.59
2022-08-22T08:06:19.001Z,99805.63
2022-08-22T08:08:46.900Z,99808.75
2022-08-22T08:11:19.244Z,99806.59
2022-08-22T08:13:51.399Z,99806.78
2022-08-22T08:16:22.674Z,99807.47
2022-08-22T08:18:53.376Z,99811.44
2022-08-22T08:21:30.142Z,99807.84
2022-08-22T08:23:59.141Z,99797.91
2022-08-22T08:26:34.232Z,99798.38
2022-08-22T08:29:03.552Z,99805.81
2022-08-22T08:31:35.330Z,99799.16
2022-08-22T08:34:07.887Z,99802.78
2022-08-22T08:36:40.416Z,99796.31
2022-08-22T08:39:20.501Z,99795.56
2022-08-22T08:42:11.516Z,99793.34
2022-08-22T08:45:01.276Z,99794.63
2022-08-22T08:48:08.716Z,99796.25
2022-08-22T08:50:59.266Z,99792.53
2022-08-22T08:53:57.943Z,99790.28
2022-08-22T08:56:36.527Z,99786.38
2022-08-22T08:59:13.361Z,99787.66
2022-08-22T09:02:20.512Z,99781.13
2022-08-22T09:05:30.692Z,99785.09
2022-08-22T09:08:21.085Z,99779.25
2022-08-22T09:11:25.245Z,99787.53
2022-08-22T09:14:12.258Z,99789.69
2022-08-22T09:17:02.119Z,99793.44
2022-08-22T09:20:15.484Z,99785.31
2022-08-22T09:23:34.749Z,99795.47
2022-08-22T09:26:12.327Z,99793.19
2022-08-22T09:28:44.615Z,99793.50
2022-08-22T09:31:47.806Z,99793.25
2022-08-22T09:34:28.464Z,99794.47
2022-08-22T09:37:14.100Z,99786.78
2022-08-22T09:39:51.998Z,99792.69
2022-08-22T09:42:24.698Z,99791.41
2022-08-22T09:45:29.581Z,99793.97
2022-08-22T09:48:07.635Z,99788.00
2022-08-22T09:51:08.266Z,99780.00
2022-08-22T09:53:59.765Z,99783.56
2022-08-22T09:56:37.899Z,99775.22
2022-08-22T09:59:12.989Z,99777.06
2022-08-22T10:01:51.086Z,99781.06
2022-08-22T10:04:45.850Z,99770.16
2022-08-22T10:07:32.741Z,99772.88
2022-08-22T10:10:15.405Z,99774.31
2022-08-22T10:12:53.264Z,99767.63
2022-08-22T10:15:29.488Z,99769.97
2022-08-22T10:18:06.568Z,99764.34
2022-08-22T10:20:51.289Z,99758.28
2022-08-22T10:23:25.143Z,99762.31
2022-08-22T10:25:55.939Z,99759.53
2022-08-22T10:28:39.859Z,99757.53
2022-08-22T10:31:23.387Z,99760.13
2022-08-22T10:34:00.159Z,99752.00
2022-08-22T10:36:35.373Z,99752.13
2022-08-22T10:39:11.609Z,99747.28
2022-08-22T10:42:03.101Z,99750.88
2022-08-22T10:44:39.667Z,99751.56
2022-08-22T10:47:15.085Z,99746.09
2022-08-22T10:49:51.450Z,99743.88
2022-08-22T10:52:24.166Z,99740.81
2022-08-22T10:54:59.003Z,99740.59
2022-08-22T10:57:42.506Z,99732.03
2022-08-22T11:00:22.399Z,99739.69
2022-08-22T11:03:02.965Z,99722.81
2022-08-22T11:05:39.313Z,99734.03
2022-08-22T11:08:37.895Z,99731.44
2022-08-22T11:11:24.178Z,99722.66
2022-08-22T11:14:20.902Z,99717.94
2022-08-22T11:16:58.074Z,99716.44
2022-08-22T11:19:44.772Z,99716.41
2022-08-22T11:22:31.276Z,99713.88
2022-08-22T11:25:29.267Z,99715.81
2022-08-22T11:28:32.215Z,99712.28
2022-08-22T11:31:08.523Z,99707.16
2022-08-22T11:33:46.991Z,99698.63
2022-08-22T11:36:35.714Z,99701.66
2022-08-22T11:39:19.461Z,99699.94
2022-08-22T11:41:56.032Z,99697.59
2022-08-22T11:44:31.058Z,99689.16
2022-08-22T11:47:02.647Z,99694.19
2022-08-22T11:49:46.423Z,99695.19
2022-08-22T11:52:27.645Z,99685.16
2022-08-22T11:55:18.104Z,99683.00
2022-08-22T11:57:49.707Z,99683.97
2022-08-22T12:00:28.716Z,99686.53
2022-08-22T12:03:16.677Z,99684.47
2022-08-22T12:05:48.714Z,99691.41
2022-08-22T12:08:28.110Z,99690.22
2022-08-22T12:11:03.377Z,99692.06
2022-08-22T12:13:39.200Z,99683.03
2022-08-22T12:16:19.210Z,99674.09
2022-08-22T12:18:55.737Z,99669.91
2022-08-22T12:21:44.162Z,99671.69
2022-08-22T12:24:41.628Z,99662.28
2022-08-22T12:27:32.000Z,99670.63
2022-08-22T12:30:21.695Z,99669.59
2022-08-22T12:33:24.461Z,99666.84
2022-08-22T12:36:02.264Z,99663.41
2022-08-22T12:38:57.288Z,99661.34
2022-08-22T12:41:46.770Z,99659.94
2022-08-22T12:44:42.855Z,99656.13
2022-08-22T12:47:25.982Z,99650.22
2022-08-22T12:50:19.444Z,99645.69
2022-08-22T12:53:01.226Z,99654.00
2022-08-22T12:55:46.692Z,99648.09
2022-08-22T12:58:33.105Z,99626.53
2022-08-22T13:01:05.521Z,99641.44
2022-08-22T13:03:37.938Z,99644.91
2022-08-22T13:06:53.878Z,99639.31
2022-08-22T13:09:28.885Z,99636.19
2022-08-22T13:12:05.219Z,99631.16
2022-08-22T13:14:34.991Z,99627.44
2022-08-22T13:17:10.704Z,99628.75
2022-08-22T13:20:00.457Z,99638.34
2022-08-22T13:22:33.624Z,99631.38
2022-08-22T13:25:08.625Z,99626.16
2022-08-22T13:27:51.311Z,99626.69
2022-08-22T13:30:34.455Z,99623.16
2022-08-22T13:33:09.948Z,99623.53
2022-08-22T13:35:44.710Z,99617.63
2022-08-22T13:38:26.610Z,99614.97
2022-08-22T13:40:56.429Z,99618.88
2022-08-22T13:43:27.996Z,99614.19
2022-08-22T13:46:01.717Z,99609.75
2022-08-22T13:48:32.379Z,99605.03
2022-08-22T13:51:08.216Z,99615.00
2022-08-22T13:53:46.394Z,99610.81
2022-08-22T13:56:32.661Z,99612.13
2022-08-22T13:59:07.228Z,99609.31
2022-08-22T14:01:45.904Z,99617.88
2022-08-22T14:04:32.102Z,99615.59
2022-08-22T14:07:24.567Z,99612.44
2022-08-22T14:09:57.871Z,99605.75
2022-08-22T14:12:33.427Z,99607.03
2022-08-22T14:15:07.820Z,99612.16
2022-08-22T14:17:42.714Z,99607.34
2022-08-22T14:20:32.016Z,99596.81
2022-08-22T14:23:04.610Z,99594.97
2022-08-22T14:25:38.812Z,99591.44
2022-08-22T14:28:09.930Z,99589.38
2022-08-22T14:30:54.597Z,99583.13
2022-08-22T14:33:27.828Z,99587.31
2022-08-22T14:36:00.412Z,99577.81
2022-08-22T14:38:37.602Z,99579.06
2022-08-22T14:41:11.069Z,99570.53
2022-08-22T14:43:50.681Z,99572.47
2022-08-22T14:46:26.603Z,99579.34
2022-08-22T14:49:25.395Z,99571.22
2022-08-22T14:51:59.953Z,99568.44
2022-08-22T14:54:29.262Z,99554.94
2022-08-22T14:57:00.657Z,99558.78
2022-08-22T14:59:39.376Z,99558.78
2022-08-22T15:02:10.804Z,99560.44
2022-08-22T15:04:41.443Z,99564.91
2022-08-22T15:07:11.456Z,99553.38
2022-08-22T15:09:43.884Z,99555.34
2022-08-22T15:12:26.878Z,99555.69
2022-08-22T15:14:57.213Z,99546.28
2022-08-22T15:17:38.690Z,99542.13
2022-08-22T15:20:12.972Z,99550.03
2022-08-22T15:22:45.484Z,99545.25
2022-08-22T15:25:18.099Z,99548.41
2022-08-22T15:27:54.921Z,99536.09
2022-08-22T15:30:36.235Z,99547.34
2022-08-22T15:33:18.885Z,99533.09
2022-08-22T15:35:47.192Z,99545.03
2022-08-22T15:38:32.701Z,99532.47
2022-08-22T15:41:40.839Z,99537.53
2022-08-22T15:44:31.012Z,99540.00
2022-08-22T15:47:25.848Z,99536.88
2022-08-22T15:50:00.529Z,99536.16
2022-08-22T15:52:30.989Z,99538.88
2022-08-22T15:55:29.237Z,99538.16
2022-08-22T15:58:08.377Z,99529.28
2022-08-22T16:00:43.299Z,99525.75
2022-08-22T16:03:24.280Z,99526.72
2022-08-22T16:05:55.711Z,99524.69
2022-08-22T16:08:29.572Z,99527.94
2022-08-22T16:11:22.712Z,99533.03
2022-08-22T16:14:22.376Z,99527.50
2022-08-22T16:16:58.301Z,99527.66
2022-08-22T16:19:27.166Z,99526.00
2022-08-22T16:22:15.972Z,99522.66
2022-08-22T16:25:02.712Z,99520.25
2022-08-22T16:27:30.807Z,99518.41
2022-08-22T16:30:16.220Z,99520.25
2022-08-22T16:32:57.140Z,99521.94
2022-08-22T16:36:10.737Z,99522.16
2022-08-22T16:38:44.373Z,99515.97
2022-08-22T16:41:26.828Z,99517.22
2022-08-22T16:44:14.036Z,99517.28
2022-08-22T16:46:46.419Z,99512.63
2022-08-22T16:49:28.587Z,99516.03
2022-08-22T16:52:33.812Z,99514.81
2022-08-22T16:55:03.485Z,99511.03
2022-08-22T16:57:44.471Z,99519.00
2022-08-22T17:00:32.936Z,99518.84
2022-08-22T17:03:11.383Z,99518.16
2022-08-22T17:05:51.647Z,99515.72
2022-08-22T17:08:45.414Z,99514.03
2022-08-22T17:11:25.348Z,99519.00
2022-08-22T17:14:06.843Z,99522.53
2022-08-22T17:16:54.034Z,99523.53
2022-08-22T17:19:39.651Z,99522.31
2022-08-22T17:22:20.401Z,99524.69
2022-08-22T17:24:56.055Z,99524.19
2022-08-22T17:27:31.274Z,99525.84
2022-08-22T17:30:03.782Z,99529.66
2022-08-22T17:32:42.222Z,99526.06
2022-08-22T17:35:26.412Z,99535.34
2022-08-22T17:38:09.672Z,99539.06
2022-08-22T17:40:42.605Z,99532.31
2022-08-22T17:43:48.772Z,99535.66
2022-08-22T17:46:35.961Z,99537.81
2022-08-22T17:49:15.132Z,99538.09
2022-08-22T17:51:50.374Z,99542.53
2022-08-22T17:54:29.690Z,99544.31
2022-08-22T17:57:05.826Z,99543.34
2022-08-22T17:59:40.720Z,99554.50
2022-08-22T18:02:16.140Z,99552.53
2022-08-22T18:04:50.304Z,99553.34
2022-08-22T18:07:33.427Z,99557.72
2022-08-22T18:10:14.359Z,99552.31
2022-08-22T18:12:51.683Z,99555.63
2022-08-22T18:15:24.041Z,99562.63
2022-08-22T18:17:57.923Z,99562.31
2022-08-22T18:20:31.179Z,99561.69
2022-08-22T18:23:03.201Z,99562.38
2022-08-22T18:25:42.460Z,99554.97
2022-08-22T18:28:22.168Z,99558.63
2022-08-22T18:30:57.580Z,99567.38
2022-08-22T18:33:34.525Z,99572.94
2022-08-22T18:36:10.368Z,99572.06
2022-08-22T18:38:49.865Z,99575.84
2022-08-22T18:41:28.252Z,99573.94
2022-08-22T18:43:59.845Z,99582.06
2022-08-22T18:46:43.084Z,99582.59
2022-08-22T18:49:28.063Z,99575.47
2022-08-22T18:52:15.588Z,99580.84
2022-08-22T18:54:56.077Z,99584.00
2022-08-22T18:57:42.475Z,99580.41
2022-08-22T19:00:16.575Z,99588.91
2022-08-22T19:03:08.065Z,99588.84
2022-08-22T19:06:02.548Z,99598.09
2022-08-22T19:08:53.601Z,99600.28
2022-08-22T19:11:37.230Z,99601.25
2022-08-22T19:14:30.179Z,99604.59
2022-08-22T19:17:24.897Z,99609.56
2022-08-22T19:20:18.184Z,99607.94
2022-08-22T19:22:51.147Z,99619.28
2022-08-22T19:25:26.751Z,99628.34
2022-08-22T19:28:23.508Z,99621.75
2022-08-22T19:30:53.458Z,99627.91
2022-08-22T19:33:34.770Z,99622.78
2022-08-22T19:36:09.506Z,99632.28
2022-08-22T19:38:59.780Z,99636.59
2022-08-22T19:41:52.767Z,99640.69
2022-08-22T19:44:42.086Z,99637.59
2022-08-22T19:47:27.052Z,99639.63
2022-08-22T19:50:01.791Z,99629.44
2022-08-22T19:52:47.560Z,99627.47
2022-08-22T19:55:23.376Z,99640.38
2022-08-22T19:58:02.273Z,99640.63
2022-08-22T20:00:50.314Z,99634.81
2022-08-22T20:03:32.453Z,99634.31
2022-08-22T20:06:13.785Z,99638.16
2022-08-22T20:09:18.344Z,99637.56
2022-08-22T20:11:53.744Z,99640.47
2022-08-22T20:14:30.693Z,99643.50
2022-08-22T20:17:03.361Z,99652.47
2022-08-22T20:20:16.455Z,99645.72
2022-08-22T20:22:41.551Z,99641.59
2022-08-22T20:25:16.990Z,99654.19
2022-08-22T20:28:03.671Z,99650.03
2022-08-22T20:30:38.543Z,99644.06
2022-08-22T20:33:08.992Z,99645.09
2022-08-22T20:35:42.592Z,99652.31
2022-08-22T20:38:14.201Z,99650.88
2022-08-22T20:40:56.358Z,99659.06
2022-08-22T20:43:34.279Z,99662.75
2022-08-22T20:46:18.840Z,99659.34
2022-08-22T20:48:48.792Z,99659.41
2022-08-22T20:51:23.839Z,99662.16
2022-08-22T20:53:54.172Z,99650.84
2022-08-22T20:56:46.066Z,99647.50
2022-08-22T20:59:29.782Z,99652.97
2022-08-22T21:02:05.471Z,99655.75
2022-08-22T21:04:42.784Z,99656.00
2022-08-22T21:07:12.068Z,99655.31
2022-08-22T21:09:57.454Z,99656.28
2022-08-22T21:12:26.260Z,99664.38
2022-08-22T21:14:53.867Z,99674.00
2022-08-22T21:17:25.916Z,99676.56
2022-08-22T21:19:54.322Z,99672.22
2022-08-22T21:22:32.662Z,99674.06
2022-08-22T21:25:01.662Z,99678.53
2022-08-22T21:27:31.976Z,99684.63
2022-08-22T21:30:01.008Z,99682.16
2022-08-22T21:32:34.389Z,99685.91
2022-08-22T21:35:02.625Z,99685.22
2022-08-22T21:37:37.237Z,99692.28
2022-08-22T21:40:14.597Z,99685.44
2022-08-22T21:42:45.422Z,99691.50
2022-08-22T21:45:26.588Z,99697.63
2022-08-22T21:47:55.722Z,99694.88
2022-08-22T21:50:31.636Z,99688.66
2022-08-22T21:53:10.184Z,99693.22
2022-08-22T21:55:42.741Z,99689.88
2022-08-22T21:58:36.030Z,99689.06
2022-08-22T22:01:28.297Z,99681.56
2022-08-22T22:03:56.443Z,99681.78
2022-08-22T22:06:24.082Z,99685.47
2022-08-22T22:08:53.020Z,99680.38
2022-08-22T22:11:20.824Z,99674.59
2022-08-22T22:13:48.891Z,99678.28
2022-08-22T22:16:22.749Z,99685.41
2022-08-22T22:18:50.371Z,99692.44
2022-08-22T22:21:18.091Z,99695.91
2022-08-22T22:23:45.789Z,99695.78
2022-08-22T22:26:15.298Z,99711.34
2022-08-22T22:28:47.711Z,99707.94
2022-08-22T22:31:18.127Z,99710.69
2022-08-22T22:33:46.370Z,99702.66
2022-08-22T22:36:17.397Z,99710.28
2022-08-22T22:38:45.479Z,99704.97
2022-08-22T22:41:14.841Z,99712.00
2022-08-22T22:43:43.139Z,99705.34
2022-08-22T22:46:10.738Z,99711.72
2022-08-22T22:48:38.329Z,99712.03
2022-08-22T22:51:08.648Z,99722.72
2022-08-22T22:53:40.140Z,99720.25
2022-08-22T22:56:12.797Z,99722.06
2022-08-22T22:58:42.311Z,99715.22
2022-08-22T23:01:11.824Z,99720.50
2022-08-22T23:03:39.742Z,99725.69
2022-08-22T23:06:12.143Z,99720.50
2022-08-22T23:08:39.845Z,99719.66
2022-08-22T23:11:10.799Z,99725.03
2022-08-22T23:13:39.736Z,99728.72
2022-08-22T23:16:14.445Z,99728.69
2022-08-22T23:18:42.948Z,99735.63
2022-08-22T23:21:11.777Z,99733.69
2022-08-22T23:23:39.796Z,99731.09
2022-08-22T23:26:07.425Z,99733.06
2022-08-22T23:28:35.031Z,99728.69
2022-08-22T23:31:17.738Z,99736.69
2022-08-22T23:33:46.524Z,99734.09
2022-08-22T23:36:16.775Z,99735.09
2022-08-22T23:38:45.344Z,99740.44
2022-08-22T23:41:15.012Z,99742.13
2022-08-22T23:43:44.522Z,99734.28
2022-08-22T23:46:14.941Z,99744.69
2022-08-22T23:48:43.175Z,99740.28
2022-08-22T23:51:11.833Z,99742.69
2022-08-22T23:53:39.933Z,99748.69
2022-08-22T23:56:19.799Z,99746.06
2022-08-22T23:58:49.085Z,99739.06
